createdAt,value
2022-08-26T00:00:19.984Z,99190.25
2022-08-26T00:03:03.654Z,99190.46
2022-08-26T00:05:32.034Z,99190.61
2022-08-26T00:08:00.462Z,99186.87
2022-08-26T00:10:29.118Z,99185.98
2022-08-26T00:12:57.273Z,99187.21
2022-08-26T00:15:26.061Z,99188.63
2022-08-26T00:17:56.692Z,99187.20
2022-08-26T00:20:28.298Z,99186.16
2022-08-26T00:22:57.136Z,99187.03
2022-08-26T00:25:26.486Z,99186.34
2022-08-26T00:27:54.613Z,99185.08
2022-08-26T00:30:26.986Z,99183.38
2022-08-26T00:32:56.490Z,99190.59
2022-08-26T00:35:26.404Z,99186.24
2022-08-26T00:37:57.137Z,99187.03
2022-08-26T00:40:36.883Z,99184.52
2022-08-26T00:43:07.083Z,99180.67
2022-08-26T00:45:56.751Z,99183.52
2022-08-26T00:48:31.732Z,99180.76
2022-08-26T00:51:07.057Z,99184.65
2022-08-26T00:53:40.092Z,99183.33
2022-08-26T00:56:22.863Z,99183.23
2022-08-26T00:58:51.515Z,99186.44
2022-08-26T01:01:19.723Z,99181.12
2022-08-26T01:03:51.479Z,99182.40
2022-08-26T01:06:20.314Z,99181.56
2022-08-26T01:08:49.569Z,99187.48
2022-08-26T01:11:18.152Z,99193.13
2022-08-26T01:13:49.091Z,99195.27
2022-08-26T01:16:17.427Z,99191.23
2022-08-26T01:18:47.076Z,99196.02
2022-08-26T01:21:29.452Z,99195.45
2022-08-26T01:23:59.403Z,99197.28
2022-08-26T01:26:36.594Z,99198.42
2022-08-26T01:29:06.707Z,99201.91
2022-08-26T01:31:42.679Z,99202.69
2022-08-26T01:34:14.213Z,99202.41
2022-08-26T01:36:46.910Z,99202.27
2022-08-26T01:39:19.880Z,99201.75
2022-08-26T01:41:53.504Z,99203.17
2022-08-26T01:47:10.095Z,99204.92
2022-08-26T01:49:38.634Z,99203.05
2022-08-26T01:52:10.741Z,99206.77
2022-08-26T01:54:41.282Z,99207.09
2022-08-26T01:57:16.522Z,99206.65
2022-08-26T01:59:44.900Z,99206.11
2022-08-26T02:02:13.382Z,99205.36
2022-08-26T02:04:49.164Z,99195.64
2022-08-26T02:07:21.545Z,99196.93
2022-08-26T02:09:49.781Z,99195.65
2022-08-26T02:12:19.799Z,99192.30
2022-08-26T02:14:55.755Z,99196.98
2022-08-26T02:17:29.356Z,99192.62
2022-08-26T02:19:58.965Z,99188.70
2022-08-26T02:22:28.879Z,99187.59
2022-08-26T02:25:10.057Z,99185.40
2022-08-26T02:27:38.335Z,99182.85
2022-08-26T02:30:17.312Z,99185.67
2022-08-26T02:32:46.662Z,99182.98
2022-08-26T02:35:20.674Z,99184.66
2022-08-26T02:37:50.588Z,99177.55
2022-08-26T02:40:22.422Z,99176.48
2022-08-26T02:42:53.013Z,99178.50
2022-08-26T02:45:26.887Z,99174.08
2022-08-26T02:47:58.396Z,99175.70
2022-08-26T02:50:27.949Z,99177.38
2022-08-26T02:52:56.445Z,99175.97
2022-08-26T02:55:24.686Z,99176.92
2022-08-26T02:57:53.183Z,99178.22
2022-08-26T03:00:22.202Z,99177.48
2022-08-26T03:02:52.096Z,99180.32
2022-08-26T03:05:24.047Z,99180.50
2022-08-26T03:07:53.096Z,99181.95
2022-08-26T03:10:22.760Z,99182.86
2022-08-26T03:12:51.136Z,99182.02
2022-08-26T03:15:20.745Z,99183.73
2022-08-26T03:17:50.386Z,99185.52
2022-08-26T03:20:19.141Z,99185.24
2022-08-26T03:22:47.620Z,99188.58
2022-08-26T03:25:17.710Z,99185.39
2022-08-26T03:27:46.119Z,99184.98
2022-08-26T03:30:34.363Z,99180.42
2022-08-26T03:33:03.462Z,99182.54
2022-08-26T03:35:34.118Z,99180.02
2022-08-26T03:38:03.589Z,99184.80
2022-08-26T03:40:34.087Z,99186.37
2022-08-26T03:43:04.361Z,99187.30
2022-08-26T03:45:32.753Z,99183.77
2022-08-26T03:48:00.786Z,99186.41
2022-08-26T03:50:31.259Z,99181.58
2022-08-26T03:53:03.418Z,99182.48
2022-08-26T03:55:33.428Z,99178.70
2022-08-26T03:58:02.323Z,99181.17
2022-08-26T04:00:31.282Z,99180.09
2022-08-26T04:02:59.366Z,99179.73
2022-08-26T04:05:27.908Z,99183.09
2022-08-26T04:07:56.412Z,99177.26
2022-08-26T04:10:28.637Z,99177.05
2022-08-26T04:13:05.944Z,99179.20
2022-08-26T04:15:34.510Z,99177.39
2022-08-26T04:18:02.641Z,99179.00
2022-08-26T04:20:32.256Z,99174.41
2022-08-26T04:23:00.476Z,99175.06
2022-08-26T04:25:28.813Z,99176.82
2022-08-26T04:27:57.283Z,99179.14
2022-08-26T04:30:25.662Z,99179.42
2022-08-26T04:32:54.041Z,99181.42
2022-08-26T04:35:25.633Z,99183.38
2022-08-26T04:37:54.623Z,99184.95
2022-08-26T04:40:24.104Z,99185.89
2022-08-26T04:42:54.692Z,99187.77
2022-08-26T04:45:24.742Z,99185.75
2022-08-26T04:47:57.114Z,99190.43
2022-08-26T04:50:26.601Z,99189.73
2022-08-26T04:52:55.677Z,99190.86
2022-08-26T04:55:39.584Z,99189.73
2022-08-26T04:58:11.112Z,99186.90
2022-08-26T05:00:39.427Z,99192.35
2022-08-26T05:03:10.622Z,99190.44
2022-08-26T05:05:41.467Z,99190.80
2022-08-26T05:08:15.890Z,99185.55
2022-08-26T05:10:51.230Z,99191.71
2022-08-26T05:13:22.373Z,99186.96
2022-08-26T05:15:51.657Z,99190.73
2022-08-26T05:18:23.328Z,99188.36
2022-08-26T05:20:54.892Z,99185.79
2022-08-26T05:23:24.521Z,99186.21
2022-08-26T05:25:58.958Z,99184.67
2022-08-26T05:28:29.863Z,99189.66
2022-08-26T05:30:58.059Z,99185.54
2022-08-26T05:33:26.301Z,99189.34
2022-08-26T05:35:55.197Z,99190.77
2022-08-26T05:38:23.569Z,99191.19
2022-08-26T05:40:53.894Z,99190.95
2022-08-26T05:43:22.282Z,99192.64
2022-08-26T05:45:51.037Z,99194.02
2022-08-26T05:48:22.791Z,99197.04
2022-08-26T05:50:53.758Z,99200.14
2022-08-26T05:53:23.899Z,99202.33
2022-08-26T05:55:56.870Z,99202.91
2022-08-26T05:58:27.035Z,99200.42
2022-08-26T06:00:58.154Z,99197.16
2022-08-26T06:03:26.551Z,99195.58
2022-08-26T06:05:55.397Z,99196.73
2022-08-26T06:08:24.223Z,99198.94
2022-08-26T06:10:59.937Z,99196.09
2022-08-26T06:13:31.856Z,99192.64
2022-08-26T06:16:03.372Z,99193.98
2022-08-26T06:18:36.701Z,99194.46
2022-08-26T06:21:16.081Z,99198.30
2022-08-26T06:24:05.453Z,99195.22
2022-08-26T06:26:35.475Z,99195.27
2022-08-26T06:29:06.305Z,99195.35
2022-08-26T06:31:36.324Z,99200.74
2022-08-26T06:34:10.381Z,99199.77
2022-08-26T06:36:43.844Z,99198.48
2022-08-26T06:39:14.499Z,99200.27
2022-08-26T06:41:45.067Z,99197.96
2022-08-26T06:44:19.317Z,99197.93
2022-08-26T06:46:50.419Z,99196.42
2022-08-26T06:49:25.722Z,99194.96
2022-08-26T06:52:00.019Z,99193.70
2022-08-26T06:54:30.542Z,99198.14
2022-08-26T06:57:18.889Z,99200.12
2022-08-26T06:59:47.268Z,99201.83
2022-08-26T07:02:19.774Z,99197.58
2022-08-26T07:04:51.190Z,99200.21
2022-08-26T07:07:21.979Z,99198.27
2022-08-26T07:09:52.468Z,99195.83
2022-08-26T07:12:21.348Z,99194.34
2022-08-26T07:14:49.930Z,99190.38
2022-08-26T07:17:19.231Z,99193.61
2022-08-26T07:19:49.275Z,99190.88
2022-08-26T07:22:18.978Z,99187.21
2022-08-26T07:24:47.133Z,99191.50
2022-08-26T07:27:17.513Z,99190.10
2022-08-26T07:29:46.172Z,99187.71
2022-08-26T07:32:15.961Z,99191.15
2022-08-26T07:34:44.538Z,99188.55
2022-08-26T07:37:12.660Z,99189.66
2022-08-26T07:39:43.365Z,99187.80
2022-08-26T07:42:15.102Z,99188.05
2022-08-26T07:44:44.205Z,99188.64
2022-08-26T07:47:24.589Z,99186.79
2022-08-26T07:49:57.744Z,99179.90
2022-08-26T07:52:29.554Z,99177.54
2022-08-26T07:55:00.417Z,99178.15
2022-08-26T07:57:29.412Z,99173.11
2022-08-26T07:59:58.176Z,99170.17
2022-08-26T08:02:28.694Z,99170.71
2022-08-26T08:04:58.703Z,99172.76
2022-08-26T08:07:44.620Z,99173.70
2022-08-26T08:10:18.062Z,99172.01
2022-08-26T08:12:48.075Z,99173.25
2022-08-26T08:15:18.913Z,99167.95
2022-08-26T08:17:48.036Z,99169.08
2022-08-26T08:20:19.452Z,99164.84
2022-08-26T08:22:48.352Z,99167.20
2022-08-26T08:25:17.139Z,99160.59
2022-08-26T08:27:46.567Z,99160.41
2022-08-26T08:30:20.910Z,99157.86
2022-08-26T08:32:52.553Z,99155.60
2022-08-26T08:35:22.787Z,99151.35
2022-08-26T08:37:54.952Z,99152.97
2022-08-26T08:40:26.785Z,99151.27
2022-08-26T08:43:04.275Z,99145.01
2022-08-26T08:46:05.973Z,99145.47
2022-08-26T08:48:37.230Z,99143.41
2022-08-26T08:51:33.501Z,99139.31
2022-08-26T08:54:02.918Z,99137.30
2022-08-26T08:56:35.954Z,99133.96
2022-08-26T08:59:20.473Z,99134.13
2022-08-26T09:01:53.891Z,99132.80
2022-08-26T09:04:40.820Z,99131.48
2022-08-26T09:07:16.542Z,99125.89
2022-08-26T09:09:59.343Z,99124.55
2022-08-26T09:12:33.128Z,99124.41
2022-08-26T09:15:45.539Z,99120.47
2022-08-26T09:18:41.982Z,99122.95
2022-08-26T09:21:17.885Z,99120.39
2022-08-26T09:23:49.676Z,99118.95
2022-08-26T09:26:26.008Z,99119.16
2022-08-26T09:29:00.134Z,99118.07
2022-08-26T09:31:30.126Z,99119.43
2022-08-26T09:34:34.339Z,99114.39
2022-08-26T09:37:04.661Z,99114.96
2022-08-26T09:39:38.649Z,99111.76
2022-08-26T09:42:25.582Z,99112.97
2022-08-26T09:45:06.547Z,99100.55
2022-08-26T09:47:57.842Z,99103.23
2022-08-26T09:50:33.624Z,99100.75
2022-08-26T09:53:13.128Z,99098.45
2022-08-26T09:55:44.380Z,99092.96
2022-08-26T09:58:31.025Z,99092.42
2022-08-26T10:01:03.563Z,99086.43
2022-08-26T10:03:36.345Z,99080.95
2022-08-26T10:06:23.361Z,99076.30
2022-08-26T10:09:08.757Z,99082.78
2022-08-26T10:11:38.042Z,99074.67
2022-08-26T10:14:19.116Z,99071.61
2022-08-26T10:17:01.508Z,99073.80
2022-08-26T10:19:55.621Z,99068.81
2022-08-26T10:22:37.193Z,99071.76
2022-08-26T10:25:09.334Z,99065.52
2022-08-26T10:28:02.520Z,99062.73
2022-08-26T10:30:51.588Z,99061.33
2022-08-26T10:33:19.861Z,99056.67
2022-08-26T10:36:03.703Z,99054.83
2022-08-26T10:38:41.482Z,99050.52
2022-08-26T10:41:22.811Z,99049.30
2022-08-26T10:44:00.279Z,99040.73
2022-08-26T10:46:41.021Z,99043.82
2022-08-26T10:49:13.724Z,99043.16
2022-08-26T10:51:58.078Z,99042.79
2022-08-26T10:54:32.089Z,99044.94
2022-08-26T10:57:25.775Z,99037.71
2022-08-26T11:00:39.255Z,99037.27
2022-08-26T11:04:00.679Z,99030.39
2022-08-26T11:06:30.062Z,99030.00
2022-08-26T11:09:01.298Z,99027.63
2022-08-26T11:11:41.526Z,99019.98
2022-08-26T11:14:28.746Z,99019.70
2022-08-26T11:16:59.012Z,99023.37
2022-08-26T11:19:45.633Z,99016.91
2022-08-26T11:22:29.722Z,99019.32
2022-08-26T11:24:57.894Z,99009.29
2022-08-26T11:27:28.486Z,99010.49
2022-08-26T11:30:18.568Z,99007.39
2022-08-26T11:32:54.164Z,99011.05
2022-08-26T11:35:24.011Z,99011.02
2022-08-26T11:37:59.183Z,99008.92
2022-08-26T11:40:29.266Z,99005.08
2022-08-26T11:43:01.251Z,99004.75
2022-08-26T11:45:45.534Z,99004.66
2022-08-26T11:48:23.936Z,99005.73
2022-08-26T11:51:13.842Z,98996.67
2022-08-26T11:53:47.167Z,98999.17
2022-08-26T11:56:32.637Z,98999.56
2022-08-26T11:59:04.057Z,98996.48
2022-08-26T12:01:39.152Z,98995.29
2022-08-26T12:04:10.940Z,98998.77
2022-08-26T12:06:49.356Z,98988.80
2022-08-26T12:09:31.178Z,98988.81
2022-08-26T12:12:19.209Z,98990.80
2022-08-26T12:14:47.690Z,98989.73
2022-08-26T12:17:26.057Z,98984.27
2022-08-26T12:19:54.279Z,98981.41
2022-08-26T12:22:28.219Z,98981.50
2022-08-26T12:24:59.025Z,98975.30
2022-08-26T12:27:40.103Z,98980.30
2022-08-26T12:30:18.109Z,98976.60
2022-08-26T12:32:58.006Z,98973.48
2022-08-26T12:35:29.533Z,98964.24
2022-08-26T12:37:58.608Z,98962.95
2022-08-26T12:40:30.801Z,98962.69
2022-08-26T12:43:02.327Z,98964.84
2022-08-26T12:45:35.614Z,98963.80
2022-08-26T12:48:24.531Z,98960.87
2022-08-26T12:50:53.577Z,98961.33
2022-08-26T12:53:25.437Z,98958.14
2022-08-26T12:56:00.578Z,98956.58
2022-08-26T12:58:31.922Z,98951.91
2022-08-26T13:01:06.890Z,98950.98
2022-08-26T13:03:35.440Z,98949.85
2022-08-26T13:06:31.725Z,98945.80
2022-08-26T13:09:31.793Z,98950.46
2022-08-26T13:12:00.074Z,98946.81
2022-08-26T13:14:31.520Z,98948.71
2022-08-26T13:16:59.695Z,98949.79
2022-08-26T13:19:29.915Z,98943.09
2022-08-26T13:22:00.344Z,98944.79
2022-08-26T13:24:33.849Z,98940.96
2022-08-26T13:27:03.756Z,98940.08
2022-08-26T13:29:32.033Z,98933.72
2022-08-26T13:32:01.150Z,98929.90
2022-08-26T13:34:30.896Z,98927.27
2022-08-26T13:37:00.041Z,98929.89
2022-08-26T13:39:28.826Z,98930.77
2022-08-26T13:41:57.058Z,98928.61
2022-08-26T13:44:25.275Z,98930.48
2022-08-26T13:46:54.067Z,98924.33
2022-08-26T13:49:22.928Z,98927.55
2022-08-26T13:51:51.230Z,98929.56
2022-08-26T13:54:19.509Z,98919.76
2022-08-26T13:56:47.784Z,98927.60
2022-08-26T13:59:16.060Z,98923.16
2022-08-26T14:01:44.336Z,98922.69
2022-08-26T14:04:12.717Z,98922.59
2022-08-26T14:06:40.963Z,98919.26
2022-08-26T14:09:09.164Z,98918.73
2022-08-26T14:11:50.601Z,98921.11
2022-08-26T14:14:23.435Z,98925.08
2022-08-26T14:16:59.251Z,98923.23
2022-08-26T14:19:30.477Z,98923.38
2022-08-26T14:22:01.210Z,98922.68
2022-08-26T14:24:30.197Z,98921.58
2022-08-26T14:26:58.944Z,98923.00
2022-08-26T14:29:27.325Z,98924.38
2022-08-26T14:31:58.952Z,98919.29
2022-08-26T14:34:27.259Z,98917.45
2022-08-26T14:36:55.430Z,98917.70
2022-08-26T14:39:24.424Z,98913.46
2022-08-26T14:41:56.900Z,98911.71
2022-08-26T14:44:29.681Z,98908.10
2022-08-26T14:47:01.537Z,98907.30
2022-08-26T14:49:31.879Z,98903.73
2022-08-26T14:52:00.244Z,98902.42
2022-08-26T14:54:29.749Z,98902.14
2022-08-26T14:57:01.818Z,98896.84
2022-08-26T14:59:35.724Z,98896.48
2022-08-26T15:02:05.660Z,98900.86
2022-08-26T15:04:34.631Z,98895.21
2022-08-26T15:07:04.751Z,98899.84
2022-08-26T15:09:35.705Z,98902.73
2022-08-26T15:12:05.194Z,98901.60
2022-08-26T15:14:33.676Z,98898.52
2022-08-26T15:17:02.259Z,98901.77
2022-08-26T15:19:30.535Z,98901.05
2022-08-26T15:21:58.812Z,98901.04
2022-08-26T15:24:29.108Z,98902.52
2022-08-26T15:26:57.722Z,98901.84
2022-08-26T15:29:26.099Z,98902.19
2022-08-26T15:31:57.301Z,98900.21
2022-08-26T15:34:28.284Z,98899.85
2022-08-26T15:36:56.560Z,98903.96
2022-08-26T15:39:24.837Z,98901.74
2022-08-26T15:41:53.624Z,98901.83
2022-08-26T15:44:22.947Z,98900.86
2022-08-26T15:46:55.355Z,98900.95
2022-08-26T15:49:27.159Z,98897.70
2022-08-26T15:51:55.413Z,98900.98
2022-08-26T15:54:24.820Z,98900.69
2022-08-26T15:56:54.139Z,98898.89
2022-08-26T15:59:22.958Z,98900.95
2022-08-26T16:01:52.495Z,98898.05
2022-08-26T16:04:21.116Z,98895.96
2022-08-26T16:06:51.689Z,98901.09
2022-08-26T16:09:27.296Z,98896.30
2022-08-26T16:11:59.258Z,98894.66
2022-08-26T16:14:27.944Z,98892.74
2022-08-26T16:16:57.654Z,98895.39
2022-08-26T16:19:26.135Z,98890.77
2022-08-26T16:21:54.720Z,98891.24
2022-08-26T16:24:28.379Z,98885.49
2022-08-26T16:26:58.848Z,98884.98
2022-08-26T16:29:28.150Z,98881.58
2022-08-26T16:31:56.324Z,98883.48
2022-08-26T16:34:24.901Z,98880.66
2022-08-26T16:36:53.299Z,98880.91
2022-08-26T16:39:21.561Z,98879.15
2022-08-26T16:41:50.456Z,98880.19
2022-08-26T16:44:19.244Z,98879.15
2022-08-26T16:46:47.549Z,98882.41
2022-08-26T16:49:16.000Z,98880.91
2022-08-26T16:51:44.173Z,98876.25
2022-08-26T16:54:12.449Z,98879.02
2022-08-26T16:56:40.725Z,98882.19
2022-08-26T16:59:11.797Z,98877.43
2022-08-26T17:01:40.258Z,98873.75
2022-08-26T17:04:08.938Z,98873.59
2022-08-26T17:06:37.416Z,98873.13
2022-08-26T17:09:05.693Z,98871.88
2022-08-26T17:11:34.511Z,98872.28
2022-08-26T17:14:03.245Z,98872.05
2022-08-26T17:16:31.636Z,98869.09
2022-08-26T17:19:01.050Z,98872.77
2022-08-26T17:21:29.298Z,98874.20
2022-08-26T17:23:57.910Z,98871.02
2022-08-26T17:26:26.854Z,98869.24
2022-08-26T17:28:55.581Z,98867.52
2022-08-26T17:31:24.237Z,98869.91
2022-08-26T17:33:53.660Z,98866.58
2022-08-26T17:36:28.085Z,98868.80
2022-08-26T17:38:58.312Z,98865.06
2022-08-26T17:41:27.126Z,98865.65
2022-08-26T17:43:55.484Z,98864.78
2022-08-26T17:46:26.669Z,98864.71
2022-08-26T17:48:55.003Z,98862.77
2022-08-26T17:51:24.506Z,98864.88
2022-08-26T17:53:53.169Z,98861.48
2022-08-26T17:56:27.117Z,98864.98
2022-08-26T17:58:58.144Z,98864.83
2022-08-26T18:01:32.307Z,98866.25
2022-08-26T18:04:01.165Z,98868.59
2022-08-26T18:06:30.873Z,98863.98
2022-08-26T18:09:00.104Z,98863.39
2022-08-26T18:11:31.506Z,98862.46
2022-08-26T18:14:00.116Z,98866.09
2022-08-26T18:16:30.209Z,98863.44
2022-08-26T18:18:58.690Z,98867.86
2022-08-26T18:21:29.432Z,98864.14
2022-08-26T18:23:57.704Z,98864.37
2022-08-26T18:26:32.327Z,98867.36
2022-08-26T18:29:01.076Z,98865.28
2022-08-26T18:31:30.389Z,98865.36
2022-08-26T18:34:00.944Z,98870.06
2022-08-26T18:36:35.698Z,98869.00
2022-08-26T18:39:06.405Z,98866.69
2022-08-26T18:41:41.235Z,98866.21
2022-08-26T18:44:13.477Z,98871.35
2022-08-26T18:46:43.426Z,98869.99
2022-08-26T18:49:13.744Z,98873.13
2022-08-26T18:51:43.556Z,98874.81
2022-08-26T18:54:11.999Z,98876.31
2022-08-26T18:56:40.867Z,98873.68
2022-08-26T18:59:10.396Z,98873.28
2022-08-26T19:01:40.883Z,98873.41
2022-08-26T19:04:14.120Z,98870.60
2022-08-26T19:06:49.293Z,98870.52
2022-08-26T19:09:19.107Z,98867.27
2022-08-26T19:11:49.805Z,98866.16
2022-08-26T19:14:20.268Z,98864.95
2022-08-26T19:16:52.566Z,98862.04
2022-08-26T19:19:24.207Z,98861.92
2022-08-26T19:21:52.724Z,98862.06
2022-08-26T19:24:21.891Z,98858.44
2022-08-26T19:26:57.518Z,98863.02
2022-08-26T19:29:29.997Z,98863.29
2022-08-26T19:31:58.916Z,98863.34
2022-08-26T19:34:27.068Z,98863.73
2022-08-26T19:36:57.282Z,98866.20
2022-08-26T19:39:26.628Z,98868.45
2022-08-26T19:41:54.985Z,98869.65
2022-08-26T19:44:41.999Z,98871.67
2022-08-26T19:47:12.046Z,98869.58
2022-08-26T19:49:40.189Z,98873.02
2022-08-26T19:52:09.091Z,98869.29
2022-08-26T19:54:37.671Z,98873.48
2022-08-26T19:57:05.510Z,98872.21
2022-08-26T19:59:33.683Z,98873.07
2022-08-26T20:02:02.337Z,98880.04
2022-08-26T20:04:31.935Z,98885.05
2022-08-26T20:07:01.775Z,98881.55
2022-08-26T20:09:31.346Z,98882.11
2022-08-26T20:11:59.572Z,98886.13
2022-08-26T20:14:28.898Z,98885.20
2022-08-26T20:16:57.084Z,98889.65
2022-08-26T20:19:44.215Z,98889.06
2022-08-26T20:22:12.991Z,98886.85
2022-08-26T20:24:49.938Z,98889.02
2022-08-26T20:27:18.585Z,98889.24
2022-08-26T20:29:46.797Z,98894.02
2022-08-26T20:32:15.133Z,98894.66
2022-08-26T20:34:43.431Z,98896.46
2022-08-26T20:37:12.651Z,98898.04
2022-08-26T20:39:41.768Z,98897.02
2022-08-26T20:42:20.381Z,98898.80
2022-08-26T20:44:54.397Z,98899.20
2022-08-26T20:47:23.650Z,98895.11
2022-08-26T20:49:52.697Z,98894.83
2022-08-26T20:52:21.230Z,98897.73
2022-08-26T20:54:49.428Z,98898.16
2022-08-26T20:57:17.807Z,98902.86
2022-08-26T20:59:45.980Z,98903.88
2022-08-26T21:02:14.231Z,98903.33
2022-08-26T21:04:42.512Z,98906.00
2022-08-26T21:07:10.810Z,98903.17
2022-08-26T21:09:39.087Z,98906.60
2022-08-26T21:12:07.603Z,98904.03
2022-08-26T21:14:35.842Z,98905.64
2022-08-26T21:17:04.836Z,98904.14
2022-08-26T21:19:33.010Z,98908.55
2022-08-26T21:22:01.287Z,98912.62
2022-08-26T21:24:29.562Z,98914.10
2022-08-26T21:26:58.043Z,98914.19
2022-08-26T21:29:26.300Z,98918.05
2022-08-26T21:31:54.537Z,98918.77
2022-08-26T21:34:22.889Z,98915.35
2022-08-26T21:36:51.149Z,98914.73
2022-08-26T21:39:19.425Z,98915.98
2022-08-26T21:41:48.053Z,98914.15
2022-08-26T21:44:17.830Z,98910.03
2022-08-26T21:46:47.299Z,98908.39
2022-08-26T21:49:16.296Z,98907.63
2022-08-26T21:51:47.770Z,98905.95
2022-08-26T21:54:16.802Z,98905.70
2022-08-26T21:56:47.298Z,98907.80
2022-08-26T21:59:18.031Z,98910.09
2022-08-26T22:01:47.361Z,98906.90
2022-08-26T22:04:16.530Z,98909.38
2022-08-26T22:06:49.012Z,98912.73
2022-08-26T22:09:20.451Z,98911.96
2022-08-26T22:11:49.488Z,98916.08
2022-08-26T22:14:21.203Z,98915.89
2022-08-26T22:16:50.796Z,98911.00
2022-08-26T22:19:23.600Z,98909.15
2022-08-26T22:21:55.558Z,98907.22
2022-08-26T22:24:26.287Z,98904.95
2022-08-26T22:26:55.173Z,98906.73
2022-08-26T22:29:25.372Z,98904.21
2022-08-26T22:31:53.962Z,98901.81
2022-08-26T22:34:23.592Z,98899.80
2022-08-26T22:36:51.878Z,98901.27
2022-08-26T22:39:23.628Z,98901.68
2022-08-26T22:41:53.545Z,98902.42
2022-08-26T22:44:22.462Z,98903.54
2022-08-26T22:46:57.264Z,98905.70
2022-08-26T22:49:25.538Z,98906.00
2022-08-26T22:51:53.817Z,98904.13
2022-08-26T22:54:22.092Z,98897.86
2022-08-26T22:56:50.470Z,98894.17
2022-08-26T22:59:18.952Z,98887.14
2022-08-26T23:01:47.740Z,98888.24
2022-08-26T23:04:16.016Z,98890.20
2022-08-26T23:06:47.591Z,98890.45
2022-08-26T23:09:18.815Z,98889.06
2022-08-26T23:11:48.716Z,98889.92
2022-08-26T23:14:18.965Z,98888.88
2022-08-26T23:16:48.094Z,98891.05
2022-08-26T23:19:19.296Z,98893.10
2022-08-26T23:21:47.929Z,98890.63
2022-08-26T23:24:17.586Z,98889.05
2022-08-26T23:26:46.430Z,98888.70
2022-08-26T23:29:15.880Z,98887.86
2022-08-26T23:31:44.711Z,98887.23
2022-08-26T23:34:32.504Z,98886.75
2022-08-26T23:37:02.727Z,98888.04
2022-08-26T23:39:35.595Z,98883.48
2022-08-26T23:42:04.878Z,98882.69
2022-08-26T23:44:33.392Z,98879.41
2022-08-26T23:47:02.258Z,98877.94
2022-08-26T23:49:30.765Z,98879.78
2022-08-26T23:52:18.087Z,98878.12
2022-08-26T23:54:49.031Z,98876.45
2022-08-26T23:57:18.755Z,98876.27
2022-08-26T23:59:48.743Z,98878.71
